sensor_id;sensor_type;location;lat;lon;timestamp;pressure;altitude;pressure_sealevel;temperature;humidity
57644;BME280;43474;46.510;6.686;2023-03-20T00:00:04;96856.06;;;7.58;100.00
57644;BME280;43474;46.510;6.686;2023-03-20T00:02:52;96854.06;;;7.54;100.00
57644;BME280;43474;46.510;6.686;2023-03-20T00:05:19;96856.50;;;7.48;100.00
57644;BME280;43474;46.510;6.686;2023-03-20T00:07:46;96850.19;;;7.49;100.00
57644;BME280;43474;46.510;6.686;2023-03-20T00:10:15;96851.25;;;7.42;100.00
57644;BME280;43474;46.510;6.686;2023-03-20T00:12:41;96856.72;;;7.47;100.00
57644;BME280;43474;46.510;6.686;2023-03-20T00:15:26;96862.78;;;7.41;100.00
57644;BME280;43474;46.510;6.686;2023-03-20T00:17:53;96861.00;;;7.28;100.00
57644;BME280;43474;46.510;6.686;2023-03-20T00:20:19;96861.59;;;7.23;100.00
57644;BME280;43474;46.510;6.686;2023-03-20T00:22:45;96858.56;;;7.27;100.00
57644;BME280;43474;46.510;6.686;2023-03-20T00:25:13;96874.19;;;7.28;100.00
57644;BME280;43474;46.510;6.686;2023-03-20T00:27:39;96864.25;;;7.17;100.00
57644;BME280;43474;46.510;6.686;2023-03-20T00:30:17;96861.63;;;7.17;100.00
57644;BME280;43474;46.510;6.686;2023-03-20T00:32:43;96873.78;;;7.18;100.00
57644;BME280;43474;46.510;6.686;2023-03-20T00:35:24;96875.19;;;7.27;100.00
57644;BME280;43474;46.510;6.686;2023-03-20T00:37:51;96885.50;;;7.35;100.00
57644;BME280;43474;46.510;6.686;2023-03-20T00:40:18;96877.00;;;7.33;100.00
57644;BME280;43474;46.510;6.686;2023-03-20T00:42:45;96876.00;;;7.34;100.00
57644;BME280;43474;46.510;6.686;2023-03-20T00:45:15;96871.94;;;7.32;100.00
57644;BME280;43474;46.510;6.686;2023-03-20T00:47:42;96878.84;;;7.33;100.00
57644;BME280;43474;46.510;6.686;2023-03-20T00:50:25;96876.41;;;7.38;100.00
57644;BME280;43474;46.510;6.686;2023-03-20T00:52:51;96853.28;;;7.20;100.00
57644;BME280;43474;46.510;6.686;2023-03-20T00:55:20;96872.75;;;7.32;100.00
57644;BME280;43474;46.510;6.686;2023-03-20T00:58:04;96872.94;;;7.44;100.00
57644;BME280;43474;46.510;6.686;2023-03-20T01:00:40;96863.59;;;7.48;100.00
57644;BME280;43474;46.510;6.686;2023-03-20T01:03:20;96855.09;;;7.39;100.00
57644;BME280;43474;46.510;6.686;2023-03-20T01:05:48;96858.16;;;7.30;100.00
57644;BME280;43474;46.510;6.686;2023-03-20T01:08:19;96859.56;;;7.39;100.00
57644;BME280;43474;46.510;6.686;2023-03-20T01:10:45;96857.31;;;7.36;100.00
57644;BME280;43474;46.510;6.686;2023-03-20T01:13:20;96855.09;;;7.46;100.00
57644;BME280;43474;46.510;6.686;2023-03-20T01:15:47;96850.44;;;7.41;100.00
57644;BME280;43474;46.510;6.686;2023-03-20T01:18:14;96849.59;;;7.41;100.00
57644;BME280;43474;46.510;6.686;2023-03-20T01:20:40;96858.34;;;7.48;100.00
57644;BME280;43474;46.510;6.686;2023-03-20T01:23:07;96854.47;;;7.44;100.00
57644;BME280;43474;46.510;6.686;2023-03-20T01:25:33;96853.88;;;7.35;100.00
57644;BME280;43474;46.510;6.686;2023-03-20T01:27:58;96850.22;;;7.43;100.00
57644;BME280;43474;46.510;6.686;2023-03-20T01:30:27;96836.03;;;7.37;100.00
57644;BME280;43474;46.510;6.686;2023-03-20T01:32:53;96845.75;;;7.50;100.00
57644;BME280;43474;46.510;6.686;2023-03-20T01:35:21;96827.91;;;7.45;100.00
57644;BME280;43474;46.510;6.686;2023-03-20T01:37:49;96842.91;;;7.45;100.00
57644;BME280;43474;46.510;6.686;2023-03-20T01:42:43;96837.88;;;7.37;100.00
57644;BME280;43474;46.510;6.686;2023-03-20T01:45:16;96838.47;;;7.25;100.00
57644;BME280;43474;46.510;6.686;2023-03-20T01:47:43;96834.81;;;7.33;100.00
57644;BME280;43474;46.510;6.686;2023-03-20T01:50:30;96840.88;;;7.40;100.00
57644;BME280;43474;46.510;6.686;2023-03-20T01:53:14;96845.34;;;7.40;100.00
57644;BME280;43474;46.510;6.686;2023-03-20T01:55:42;96843.34;;;7.29;100.00
57644;BME280;43474;46.510;6.686;2023-03-20T01:58:13;96838.06;;;7.35;100.00
57644;BME280;43474;46.510;6.686;2023-03-20T02:00:40;96827.31;;;7.37;100.00
57644;BME280;43474;46.510;6.686;2023-03-20T02:03:06;96842.72;;;7.40;100.00
57644;BME280;43474;46.510;6.686;2023-03-20T02:05:34;96833.03;;;7.27;100.00
57644;BME280;43474;46.510;6.686;2023-03-20T02:08:15;96831.97;;;7.35;100.00
57644;BME280;43474;46.510;6.686;2023-03-20T02:10:44;96815.00;;;7.17;100.00
57644;BME280;43474;46.510;6.686;2023-03-20T02:13:10;96809.72;;;7.17;100.00
57644;BME280;43474;46.510;6.686;2023-03-20T02:16:06;96822.69;;;7.19;100.00
57644;BME280;43474;46.510;6.686;2023-03-20T02:18:32;96811.72;;;7.15;100.00
57644;BME280;43474;46.510;6.686;2023-03-20T02:26:40;96829.38;;;7.21;100.00
57644;BME280;43474;46.510;6.686;2023-03-20T02:40:24;96848.44;;;7.10;100.00
57644;BME280;43474;46.510;6.686;2023-03-20T02:43:28;96844.38;;;7.14;100.00
57644;BME280;43474;46.510;6.686;2023-03-20T02:53:59;96845.59;;;7.05;100.00
57644;BME280;43474;46.510;6.686;2023-03-20T03:01:31;96841.97;;;6.93;100.00
57644;BME280;43474;46.510;6.686;2023-03-20T03:04:03;96842.16;;;6.91;100.00
57644;BME280;43474;46.510;6.686;2023-03-20T03:06:42;96844.59;;;6.93;100.00
57644;BME280;43474;46.510;6.686;2023-03-20T03:09:13;96831.63;;;6.78;100.00
57644;BME280;43474;46.510;6.686;2023-03-20T03:11:49;96839.09;;;6.74;100.00
57644;BME280;43474;46.510;6.686;2023-03-20T03:14:36;96854.72;;;6.83;100.00
57644;BME280;43474;46.510;6.686;2023-03-20T03:17:04;96839.94;;;6.82;100.00
57644;BME280;43474;46.510;6.686;2023-03-20T03:19:34;96844.38;;;6.74;100.00
57644;BME280;43474;46.510;6.686;2023-03-20T03:22:02;96852.50;;;6.73;100.00
57644;BME280;43474;46.510;6.686;2023-03-20T03:24:31;96852.69;;;6.78;100.00
57644;BME280;43474;46.510;6.686;2023-03-20T03:26:58;96849.25;;;6.78;100.00
57644;BME280;43474;46.510;6.686;2023-03-20T03:29:30;96852.69;;;6.85;100.00
57644;BME280;43474;46.510;6.686;2023-03-20T03:32:00;96835.28;;;6.77;100.00
57644;BME280;43474;46.510;6.686;2023-03-20T03:34:26;96822.88;;;6.71;100.00
57644;BME280;43474;46.510;6.686;2023-03-20T03:37:10;96845.22;;;6.82;100.00
57644;BME280;43474;46.510;6.686;2023-03-20T03:39:39;96842.38;;;6.77;100.00
57644;BME280;43474;46.510;6.686;2023-03-20T03:42:29;96846.78;;;6.76;100.00
57644;BME280;43474;46.510;6.686;2023-03-20T03:45:11;96841.75;;;6.74;100.00
57644;BME280;43474;46.510;6.686;2023-03-20T03:48:00;96845.81;;;6.77;100.00
57644;BME280;43474;46.510;6.686;2023-03-20T03:50:32;96818.25;;;6.66;100.00
57644;BME280;43474;46.510;6.686;2023-03-20T03:53:05;96828.97;;;6.65;100.00
57644;BME280;43474;46.510;6.686;2023-03-20T03:55:37;96844.16;;;6.76;100.00
57644;BME280;43474;46.510;6.686;2023-03-20T03:58:09;96840.94;;;6.74;100.00
57644;BME280;43474;46.510;6.686;2023-03-20T04:00:39;96846.81;;;6.69;100.00
57644;BME280;43474;46.510;6.686;2023-03-20T04:03:06;96867.47;;;6.72;100.00
57644;BME280;43474;46.510;6.686;2023-03-20T04:05:33;96849.22;;;6.64;100.00
57644;BME280;43474;46.510;6.686;2023-03-20T04:08:01;96852.47;;;6.60;100.00
57644;BME280;43474;46.510;6.686;2023-03-20T04:10:27;96853.69;;;6.57;100.00
57644;BME280;43474;46.510;6.686;2023-03-20T04:12:53;96843.94;;;6.51;100.00
57644;BME280;43474;46.510;6.686;2023-03-20T04:15:19;96856.72;;;6.61;100.00
57644;BME280;43474;46.510;6.686;2023-03-20T04:17:46;96840.53;;;6.57;100.00
57644;BME280;43474;46.510;6.686;2023-03-20T04:20:12;96841.94;;;6.53;100.00
57644;BME280;43474;46.510;6.686;2023-03-20T04:22:38;96847.63;;;6.57;100.00
57644;BME280;43474;46.510;6.686;2023-03-20T04:25:05;96853.47;;;6.59;100.00
57644;BME280;43474;46.510;6.686;2023-03-20T04:27:31;96844.75;;;6.45;100.00
57644;BME280;43474;46.510;6.686;2023-03-20T04:29:57;96848.19;;;6.39;100.00
57644;BME280;43474;46.510;6.686;2023-03-20T04:32:22;96849.16;;;6.31;100.00
57644;BME280;43474;46.510;6.686;2023-03-20T04:34:48;96835.56;;;6.21;100.00
57644;BME280;43474;46.510;6.686;2023-03-20T04:37:14;96844.31;;;6.28;100.00
57644;BME280;43474;46.510;6.686;2023-03-20T04:39:39;96839.63;;;6.24;100.00
57644;BME280;43474;46.510;6.686;2023-03-20T04:42:06;96851.41;;;6.28;100.00
57644;BME280;43474;46.510;6.686;2023-03-20T04:44:33;96848.72;;;6.21;100.00
57644;BME280;43474;46.510;6.686;2023-03-20T04:46:58;96851.13;;;6.16;100.00
57644;BME280;43474;46.510;6.686;2023-03-20T04:49:24;96843.00;;;6.04;100.00
57644;BME280;43474;46.510;6.686;2023-03-20T04:51:51;96839.41;;;6.12;100.00
57644;BME280;43474;46.510;6.686;2023-03-20T04:54:17;96839.78;;;6.02;100.00
57644;BME280;43474;46.510;6.686;2023-03-20T04:56:42;96850.69;;;6.06;100.00
57644;BME280;43474;46.510;6.686;2023-03-20T04:59:08;96862.47;;;6.10;100.00
57644;BME280;43474;46.510;6.686;2023-03-20T05:01:34;96855.94;;;5.99;100.00
57644;BME280;43474;46.510;6.686;2023-03-20T05:04:00;96866.69;;;6.04;100.00
57644;BME280;43474;46.510;6.686;2023-03-20T05:06:29;96864.44;;;6.01;100.00
57644;BME280;43474;46.510;6.686;2023-03-20T05:08:56;96855.59;;;6.15;100.00
57644;BME280;43474;46.510;6.686;2023-03-20T05:11:24;96865.72;;;6.18;100.00
57644;BME280;43474;46.510;6.686;2023-03-20T05:13:50;96864.94;;;6.31;100.00
57644;BME280;43474;46.510;6.686;2023-03-20T05:16:15;96859.06;;;6.22;100.00
57644;BME280;43474;46.510;6.686;2023-03-20T05:18:41;96825.19;;;6.06;100.00
57644;BME280;43474;46.510;6.686;2023-03-20T05:21:07;96861.88;;;6.21;100.00
57644;BME280;43474;46.510;6.686;2023-03-20T05:23:33;96846.28;;;6.13;100.00
57644;BME280;43474;46.510;6.686;2023-03-20T05:25:58;96834.53;;;6.09;100.00
57644;BME280;43474;46.510;6.686;2023-03-20T05:28:25;96842.22;;;6.04;100.00
57644;BME280;43474;46.510;6.686;2023-03-20T05:30:51;96844.47;;;6.07;100.00
57644;BME280;43474;46.510;6.686;2023-03-20T05:33:17;96845.56;;;5.91;100.00
57644;BME280;43474;46.510;6.686;2023-03-20T05:35:42;96841.06;;;5.78;100.00
57644;BME280;43474;46.510;6.686;2023-03-20T05:38:08;96843.06;;;5.76;100.00
57644;BME280;43474;46.510;6.686;2023-03-20T05:40:33;96842.66;;;5.73;100.00
57644;BME280;43474;46.510;6.686;2023-03-20T05:42:59;96840.91;;;5.52;100.00
57644;BME280;43474;46.510;6.686;2023-03-20T05:45:24;96852.88;;;5.54;100.00
57644;BME280;43474;46.510;6.686;2023-03-20T05:47:50;96852.22;;;5.45;100.00
57644;BME280;43474;46.510;6.686;2023-03-20T05:50:15;96845.44;;;5.30;100.00
57644;BME280;43474;46.510;6.686;2023-03-20T05:52:41;96846.75;;;5.12;100.00
57644;BME280;43474;46.510;6.686;2023-03-20T05:55:07;96863.50;;;5.11;100.00
57644;BME280;43474;46.510;6.686;2023-03-20T05:57:32;96860.06;;;5.11;100.00
57644;BME280;43474;46.510;6.686;2023-03-20T05:59:58;96848.72;;;5.04;100.00
57644;BME280;43474;46.510;6.686;2023-03-20T06:02:23;96865.03;;;4.99;100.00
57644;BME280;43474;46.510;6.686;2023-03-20T06:04:49;96857.13;;;4.92;100.00
57644;BME280;43474;46.510;6.686;2023-03-20T06:07:15;96856.28;;;4.92;100.00
57644;BME280;43474;46.510;6.686;2023-03-20T06:09:41;96862.78;;;4.96;100.00
57644;BME280;43474;46.510;6.686;2023-03-20T06:12:06;96868.09;;;5.03;100.00
57644;BME280;43474;46.510;6.686;2023-03-20T06:14:32;96879.91;;;5.13;100.00
57644;BME280;43474;46.510;6.686;2023-03-20T06:16:58;96868.09;;;5.03;100.00
57644;BME280;43474;46.510;6.686;2023-03-20T06:19:25;96878.88;;;5.14;100.00
57644;BME280;43474;46.510;6.686;2023-03-20T06:21:50;96843.22;;;4.99;100.00
57644;BME280;43474;46.510;6.686;2023-03-20T06:24:16;96855.25;;;5.14;100.00
57644;BME280;43474;46.510;6.686;2023-03-20T06:26:42;96869.09;;;5.30;100.00
57644;BME280;43474;46.510;6.686;2023-03-20T06:29:07;96861.44;;;5.35;100.00
57644;BME280;43474;46.510;6.686;2023-03-20T06:31:33;96866.25;;;5.59;100.00
57644;BME280;43474;46.510;6.686;2023-03-20T06:33:59;96846.69;;;5.75;100.00
57644;BME280;43474;46.510;6.686;2023-03-20T06:36:25;96852.84;;;5.89;100.00
57644;BME280;43474;46.510;6.686;2023-03-20T06:38:50;96857.81;;;6.12;100.00
57644;BME280;43474;46.510;6.686;2023-03-20T06:41:16;96848.78;;;6.41;100.00
57644;BME280;43474;46.510;6.686;2023-03-20T06:43:42;96837.88;;;6.64;100.00
57644;BME280;43474;46.510;6.686;2023-03-20T06:46:08;96842.75;;;6.93;100.00
57644;BME280;43474;46.510;6.686;2023-03-20T06:48:34;96829.78;;;7.05;100.00
57644;BME280;43474;46.510;6.686;2023-03-20T06:51:00;96833.19;;;7.25;100.00
57644;BME280;43474;46.510;6.686;2023-03-20T06:53:26;96838.28;;;7.34;100.00
57644;BME280;43474;46.510;6.686;2023-03-20T06:55:51;96839.09;;;7.34;100.00
57644;BME280;43474;46.510;6.686;2023-03-20T06:58:17;96846.59;;;7.37;100.00
57644;BME280;43474;46.510;6.686;2023-03-20T07:00:43;96851.63;;;7.45;100.00
57644;BME280;43474;46.510;6.686;2023-03-20T07:03:09;96843.53;;;7.34;100.00
57644;BME280;43474;46.510;6.686;2023-03-20T07:05:36;96849.41;;;7.42;100.00
57644;BME280;43474;46.510;6.686;2023-03-20T07:08:03;96855.69;;;7.48;100.00
57644;BME280;43474;46.510;6.686;2023-03-20T07:10:29;96866.84;;;7.50;100.00
57644;BME280;43474;46.510;6.686;2023-03-20T07:12:54;96852.84;;;7.49;100.00
57644;BME280;43474;46.510;6.686;2023-03-20T07:15:21;96842.09;;;7.51;100.00
57644;BME280;43474;46.510;6.686;2023-03-20T07:17:46;96852.63;;;7.58;100.00
57644;BME280;43474;46.510;6.686;2023-03-20T07:20:12;96854.22;;;7.65;100.00
57644;BME280;43474;46.510;6.686;2023-03-20T07:22:38;96857.66;;;7.72;100.00
57644;BME280;43474;46.510;6.686;2023-03-20T07:25:07;96867.16;;;7.87;100.00
57644;BME280;43474;46.510;6.686;2023-03-20T07:27:33;96847.09;;;7.79;100.00
57644;BME280;43474;46.510;6.686;2023-03-20T07:29:59;96857.97;;;8.02;100.00
57644;BME280;43474;46.510;6.686;2023-03-20T07:32:25;96857.66;;;8.31;100.00
57644;BME280;43474;46.510;6.686;2023-03-20T07:34:51;96855.28;;;8.54;100.00
57644;BME280;43474;46.510;6.686;2023-03-20T07:37:17;96836.28;;;10.00;100.00
57644;BME280;43474;46.510;6.686;2023-03-20T07:39:42;96839.69;;;12.20;100.00
57644;BME280;43474;46.510;6.686;2023-03-20T07:42:08;96854.00;;;13.38;100.00
57644;BME280;43474;46.510;6.686;2023-03-20T07:44:33;96833.63;;;13.66;100.00
57644;BME280;43474;46.510;6.686;2023-03-20T07:46:59;96846.09;;;13.82;100.00
57644;BME280;43474;46.510;6.686;2023-03-20T07:49:25;96846.81;;;13.22;100.00
57644;BME280;43474;46.510;6.686;2023-03-20T07:51:51;96853.53;;;11.82;100.00
57644;BME280;43474;46.510;6.686;2023-03-20T07:54:19;96866.84;;;10.93;100.00
57644;BME280;43474;46.510;6.686;2023-03-20T07:56:45;96856.63;;;10.18;100.00
57644;BME280;43474;46.510;6.686;2023-03-20T07:59:14;96851.28;;;9.88;100.00
57644;BME280;43474;46.510;6.686;2023-03-20T08:01:39;96882.25;;;10.06;100.00
57644;BME280;43474;46.510;6.686;2023-03-20T08:04:05;96882.69;;;9.84;100.00
57644;BME280;43474;46.510;6.686;2023-03-20T08:06:31;96884.28;;;9.67;100.00
57644;BME280;43474;46.510;6.686;2023-03-20T08:08:56;96888.19;;;9.65;100.00
57644;BME280;43474;46.510;6.686;2023-03-20T08:11:22;96894.00;;;9.55;100.00
57644;BME280;43474;46.510;6.686;2023-03-20T08:13:48;96889.84;;;9.41;100.00
57644;BME280;43474;46.510;6.686;2023-03-20T08:16:13;96911.44;;;9.38;100.00
57644;BME280;43474;46.510;6.686;2023-03-20T08:18:39;96908.06;;;9.24;100.00
57644;BME280;43474;46.510;6.686;2023-03-20T08:21:05;96919.69;;;9.23;100.00
57644;BME280;43474;46.510;6.686;2023-03-20T08:23:31;96914.34;;;9.29;100.00
57644;BME280;43474;46.510;6.686;2023-03-20T08:25:57;96898.13;;;9.19;100.00
57644;BME280;43474;46.510;6.686;2023-03-20T08:28:23;96899.94;;;9.25;100.00
57644;BME280;43474;46.510;6.686;2023-03-20T08:30:48;96910.41;;;9.39;100.00
57644;BME280;43474;46.510;6.686;2023-03-20T08:33:15;96912.31;;;9.31;100.00
57644;BME280;43474;46.510;6.686;2023-03-20T08:35:41;96904.03;;;9.46;100.00
57644;BME280;43474;46.510;6.686;2023-03-20T08:38:13;96894.56;;;9.57;100.00
57644;BME280;43474;46.510;6.686;2023-03-20T08:40:40;96895.47;;;9.88;100.00
57644;BME280;43474;46.510;6.686;2023-03-20T08:43:06;96889.00;;;10.02;100.00
57644;BME280;43474;46.510;6.686;2023-03-20T08:45:32;96907.88;;;10.30;100.00
57644;BME280;43474;46.510;6.686;2023-03-20T08:47:58;96894.09;;;10.22;100.00
57644;BME280;43474;46.510;6.686;2023-03-20T08:50:23;96891.59;;;10.45;100.00
57644;BME280;43474;46.510;6.686;2023-03-20T08:52:49;96885.47;;;12.96;100.00
57644;BME280;43474;46.510;6.686;2023-03-20T08:55:15;96893.88;;;14.11;100.00
57644;BME280;43474;46.510;6.686;2023-03-20T08:57:42;96885.19;;;14.37;100.00
57644;BME280;43474;46.510;6.686;2023-03-20T09:00:09;96894.97;;;14.54;100.00
57644;BME280;43474;46.510;6.686;2023-03-20T09:02:37;96896.16;;;14.63;100.00
57644;BME280;43474;46.510;6.686;2023-03-20T09:05:02;96885.22;;;14.64;100.00
57644;BME280;43474;46.510;6.686;2023-03-20T09:07:28;96901.03;;;14.71;100.00
57644;BME280;43474;46.510;6.686;2023-03-20T09:09:54;96888.47;;;14.93;100.00
57644;BME280;43474;46.510;6.686;2023-03-20T09:12:19;96899.38;;;15.19;100.00
57644;BME280;43474;46.510;6.686;2023-03-20T09:14:45;96909.41;;;15.39;100.00
57644;BME280;43474;46.510;6.686;2023-03-20T09:17:10;96911.09;;;14.64;100.00
57644;BME280;43474;46.510;6.686;2023-03-20T09:19:37;96893.22;;;14.91;100.00
57644;BME280;43474;46.510;6.686;2023-03-20T09:22:13;96906.25;;;15.15;100.00
57644;BME280;43474;46.510;6.686;2023-03-20T09:24:38;96878.97;;;14.81;100.00
57644;BME280;43474;46.510;6.686;2023-03-20T09:27:04;96916.59;;;14.13;100.00
57644;BME280;43474;46.510;6.686;2023-03-20T09:29:30;96914.47;;;13.93;100.00
57644;BME280;43474;46.510;6.686;2023-03-20T09:31:55;96894.06;;;14.92;100.00
57644;BME280;43474;46.510;6.686;2023-03-20T09:34:21;96890.72;;;15.39;98.32
57644;BME280;43474;46.510;6.686;2023-03-20T09:36:47;96893.03;;;15.62;98.08
57644;BME280;43474;46.510;6.686;2023-03-20T09:39:12;96897.25;;;15.53;97.05
57644;BME280;43474;46.510;6.686;2023-03-20T09:41:38;96886.97;;;15.40;100.00
57644;BME280;43474;46.510;6.686;2023-03-20T09:44:35;96906.56;;;15.50;97.74
57644;BME280;43474;46.510;6.686;2023-03-20T09:47:12;96915.63;;;15.76;93.16
57644;BME280;43474;46.510;6.686;2023-03-20T09:50:27;96914.19;;;15.64;94.20
57644;BME280;43474;46.510;6.686;2023-03-20T09:53:08;96867.44;;;15.34;91.83
57644;BME280;43474;46.510;6.686;2023-03-20T09:55:38;96816.66;;;14.92;88.12
57644;BME280;43474;46.510;6.686;2023-03-20T09:58:12;96835.81;;;15.21;94.74
57644;BME280;43474;46.510;6.686;2023-03-20T10:00:44;96813.41;;;15.17;90.20
57644;BME280;43474;46.510;6.686;2023-03-20T10:03:20;96907.88;;;15.80;89.13
57644;BME280;43474;46.510;6.686;2023-03-20T10:06:08;96910.47;;;15.70;93.23
57644;BME280;43474;46.510;6.686;2023-03-20T10:08:37;96921.03;;;15.55;92.81
57644;BME280;43474;46.510;6.686;2023-03-20T10:11:05;96917.38;;;15.66;94.49
57644;BME280;43474;46.510;6.686;2023-03-20T10:19:30;96914.94;;;15.96;90.15
57644;BME280;43474;46.510;6.686;2023-03-20T10:22:20;96923.84;;;15.70;86.63
57644;BME280;43474;46.510;6.686;2023-03-20T10:27:25;96906.31;;;15.89;90.31
57644;BME280;43474;46.510;6.686;2023-03-20T10:30:06;96938.19;;;16.01;84.18
57644;BME280;43474;46.510;6.686;2023-03-20T10:32:46;96934.66;;;16.33;83.57
57644;BME280;43474;46.510;6.686;2023-03-20T10:38:31;96929.91;;;16.50;82.99
57644;BME280;43474;46.510;6.686;2023-03-20T10:41:09;96851.50;;;16.49;83.28
57644;BME280;43474;46.510;6.686;2023-03-20T10:43:55;96926.56;;;16.90;77.51
57644;BME280;43474;46.510;6.686;2023-03-20T10:46:37;96946.19;;;17.16;79.06
57644;BME280;43474;46.510;6.686;2023-03-20T10:49:10;96866.88;;;16.90;75.96
57644;BME280;43474;46.510;6.686;2023-03-20T10:51:50;96899.91;;;15.90;77.11
57644;BME280;43474;46.510;6.686;2023-03-20T10:54:23;96891.19;;;14.98;87.19
57644;BME280;43474;46.510;6.686;2023-03-20T10:57:01;96858.06;;;14.02;82.45
57644;BME280;43474;46.510;6.686;2023-03-20T10:59:38;96940.91;;;14.00;92.19
57644;BME280;43474;46.510;6.686;2023-03-20T11:02:13;96930.31;;;13.50;89.70
57644;BME280;43474;46.510;6.686;2023-03-20T11:04:39;96905.69;;;13.26;90.04
57644;BME280;43474;46.510;6.686;2023-03-20T11:07:18;96928.66;;;13.82;93.89
57644;BME280;43474;46.510;6.686;2023-03-20T11:12:32;96908.19;;;15.89;83.72
57644;BME280;43474;46.510;6.686;2023-03-20T11:15:31;96901.16;;;16.93;84.29
57644;BME280;43474;46.510;6.686;2023-03-20T11:18:02;96911.91;;;17.69;77.80
57644;BME280;43474;46.510;6.686;2023-03-20T11:20:34;96901.47;;;17.52;70.63
57644;BME280;43474;46.510;6.686;2023-03-20T11:23:04;96898.38;;;16.05;77.03
57644;BME280;43474;46.510;6.686;2023-03-20T11:25:47;96910.22;;;15.39;80.17
57644;BME280;43474;46.510;6.686;2023-03-20T11:28:34;96896.41;;;15.85;82.30
57644;BME280;43474;46.510;6.686;2023-03-20T11:31:04;96910.47;;;15.70;83.11
57644;BME280;43474;46.510;6.686;2023-03-20T11:33:33;96908.22;;;14.70;80.54
57644;BME280;43474;46.510;6.686;2023-03-20T11:36:00;96913.88;;;14.30;86.30
57644;BME280;43474;46.510;6.686;2023-03-20T11:38:29;96901.69;;;13.95;88.41
57644;BME280;43474;46.510;6.686;2023-03-20T11:40:56;96905.56;;;13.49;89.57
57644;BME280;43474;46.510;6.686;2023-03-20T11:43:24;96906.94;;;13.06;91.50
57644;BME280;43474;46.510;6.686;2023-03-20T11:45:59;96902.75;;;12.93;94.10
57644;BME280;43474;46.510;6.686;2023-03-20T11:48:36;96915.84;;;12.83;95.58
57644;BME280;43474;46.510;6.686;2023-03-20T11:51:09;96918.13;;;12.63;97.85
57644;BME280;43474;46.510;6.686;2023-03-20T11:56:20;96917.00;;;12.07;100.00
57644;BME280;43474;46.510;6.686;2023-03-20T11:58:53;96916.75;;;12.20;98.74
57644;BME280;43474;46.510;6.686;2023-03-20T12:01:20;96910.16;;;12.23;99.07
57644;BME280;43474;46.510;6.686;2023-03-20T12:03:57;96923.31;;;12.29;99.27
57644;BME280;43474;46.510;6.686;2023-03-20T12:06:53;96901.28;;;13.48;100.00
57644;BME280;43474;46.510;6.686;2023-03-20T12:12:11;96913.59;;;14.32;93.10
57644;BME280;43474;46.510;6.686;2023-03-20T12:14:57;96903.28;;;15.38;86.56
57644;BME280;43474;46.510;6.686;2023-03-20T12:18:00;96901.13;;;15.67;83.32
57644;BME280;43474;46.510;6.686;2023-03-20T12:20:38;96889.56;;;14.97;88.75
57644;BME280;43474;46.510;6.686;2023-03-20T12:25:41;96899.72;;;14.08;92.67
57644;BME280;43474;46.510;6.686;2023-03-20T12:28:16;96882.56;;;13.82;96.77
57644;BME280;43474;46.510;6.686;2023-03-20T12:33:41;96881.34;;;13.51;95.18
57644;BME280;43474;46.510;6.686;2023-03-20T12:36:13;96866.66;;;13.48;97.16
57644;BME280;43474;46.510;6.686;2023-03-20T12:38:39;96898.34;;;13.83;95.19
57644;BME280;43474;46.510;6.686;2023-03-20T12:41:12;96884.28;;;13.71;94.57
57644;BME280;43474;46.510;6.686;2023-03-20T12:43:48;96890.94;;;13.68;95.00
57644;BME280;43474;46.510;6.686;2023-03-20T12:51:39;96854.63;;;13.45;89.33
57644;BME280;43474;46.510;6.686;2023-03-20T12:54:36;96863.53;;;13.34;92.79
57644;BME280;43474;46.510;6.686;2023-03-20T13:10:31;96830.31;;;15.33;84.28
57644;BME280;43474;46.510;6.686;2023-03-20T13:13:26;96832.78;;;15.39;82.48
57644;BME280;43474;46.510;6.686;2023-03-20T13:19:01;96820.53;;;15.48;82.03
57644;BME280;43474;46.510;6.686;2023-03-20T13:29:47;96809.34;;;15.14;85.10
57644;BME280;43474;46.510;6.686;2023-03-20T13:32:26;96814.53;;;14.94;82.88
57644;BME280;43474;46.510;6.686;2023-03-20T13:37:31;96797.06;;;14.81;85.22
57644;BME280;43474;46.510;6.686;2023-03-20T13:40:21;96801.81;;;15.06;85.55
57644;BME280;43474;46.510;6.686;2023-03-20T13:42:58;96797.22;;;15.02;81.59
57644;BME280;43474;46.510;6.686;2023-03-20T13:45:34;96777.13;;;14.89;83.89
57644;BME280;43474;46.510;6.686;2023-03-20T13:50:59;96787.09;;;14.98;79.10
57644;BME280;43474;46.510;6.686;2023-03-20T13:53:42;96776.19;;;15.05;80.97
57644;BME280;43474;46.510;6.686;2023-03-20T13:56:39;96759.97;;;15.12;78.13
57644;BME280;43474;46.510;6.686;2023-03-20T14:02:23;96766.47;;;14.89;76.85
57644;BME280;43474;46.510;6.686;2023-03-20T14:07:32;96782.13;;;14.80;78.82
57644;BME280;43474;46.510;6.686;2023-03-20T14:12:53;96760.44;;;14.44;83.60
57644;BME280;43474;46.510;6.686;2023-03-20T14:15:20;96765.81;;;14.77;80.96
57644;BME280;43474;46.510;6.686;2023-03-20T14:17:47;96768.63;;;14.60;79.25
57644;BME280;43474;46.510;6.686;2023-03-20T14:20:36;96764.38;;;14.64;82.46
57644;BME280;43474;46.510;6.686;2023-03-20T14:23:03;96751.31;;;14.62;80.76
57644;BME280;43474;46.510;6.686;2023-03-20T14:25:34;96759.06;;;14.64;78.92
57644;BME280;43474;46.510;6.686;2023-03-20T14:30:47;96756.25;;;14.48;84.83
57644;BME280;43474;46.510;6.686;2023-03-20T14:36:09;96768.22;;;14.73;80.39
57644;BME280;43474;46.510;6.686;2023-03-20T14:39:04;96740.38;;;14.64;82.09
57644;BME280;43474;46.510;6.686;2023-03-20T14:41:50;96767.19;;;14.79;78.92
57644;BME280;43474;46.510;6.686;2023-03-20T14:44:37;96733.44;;;14.63;78.15
57644;BME280;43474;46.510;6.686;2023-03-20T14:50:19;96765.78;;;14.44;82.84
57644;BME280;43474;46.510;6.686;2023-03-20T14:53:16;96767.56;;;14.61;81.31
57644;BME280;43474;46.510;6.686;2023-03-20T15:04:51;96743.44;;;14.78;77.42
57644;BME280;43474;46.510;6.686;2023-03-20T15:09:22;96740.84;;;14.88;76.30
57644;BME280;43474;46.510;6.686;2023-03-20T15:11:51;96744.25;;;14.78;77.26
57644;BME280;43474;46.510;6.686;2023-03-20T15:14:26;96744.38;;;14.66;74.89
57644;BME280;43474;46.510;6.686;2023-03-20T15:16:58;96745.06;;;14.52;77.44
57644;BME280;43474;46.510;6.686;2023-03-20T15:19:24;96747.59;;;14.41;76.66